createdAt,value
2018-03-23T00:01:32.890Z,45.87
2018-03-23T00:04:01.981Z,52.17
2018-03-23T00:06:31.088Z,55.77
2018-03-23T00:09:00.220Z,58.13
2018-03-23T00:11:28.528Z,61.63
2018-03-23T00:13:56.846Z,76.13
2018-03-23T00:16:25.204Z,78.80
2018-03-23T00:18:53.508Z,71.83
2018-03-23T00:21:22.602Z,74.33
2018-03-23T00:23:50.918Z,72.50
2018-03-23T00:26:19.244Z,81.50
2018-03-23T00:28:47.556Z,75.40
2018-03-23T00:31:15.870Z,88.10
2018-03-23T00:33:44.194Z,72.17
2018-03-23T00:36:12.516Z,82.87
2018-03-23T00:38:41.590Z,90.80
2018-03-23T00:41:09.916Z,80.60
2018-03-23T00:43:38.318Z,82.07
2018-03-23T00:46:06.624Z,87.70
2018-03-23T00:48:34.954Z,75.63
2018-03-23T00:51:03.311Z,72.20
2018-03-23T00:53:32.387Z,76.40
2018-03-23T00:56:00.708Z,70.70
2018-03-23T00:58:29.812Z,70.43
2018-03-23T01:00:58.172Z,76.03
2018-03-23T01:03:26.490Z,72.47
2018-03-23T01:05:54.812Z,67.27
2018-03-23T01:08:23.128Z,60.73
2018-03-23T01:10:52.337Z,67.20
2018-03-23T01:13:21.425Z,57.00
2018-03-23T01:15:49.740Z,66.00
2018-03-23T01:18:18.053Z,65.97
2018-03-23T01:20:46.390Z,56.70
2018-03-23T01:23:15.486Z,66.27
2018-03-23T01:25:44.576Z,62.23
2018-03-23T01:28:12.892Z,63.53
2018-03-23T01:30:42.058Z,52.40
2018-03-23T01:33:11.146Z,53.73
2018-03-23T01:35:39.460Z,56.13
2018-03-23T01:38:07.810Z,59.97
2018-03-23T01:40:36.145Z,55.30
2018-03-23T01:43:04.484Z,48.90
2018-03-23T01:45:32.793Z,58.60
2018-03-23T01:48:01.105Z,54.37
2018-03-23T01:50:29.422Z,45.13
2018-03-23T01:52:57.738Z,50.00
2018-03-23T01:55:26.071Z,54.13
2018-03-23T01:57:54.423Z,44.77
2018-03-23T02:00:22.738Z,50.33
2018-03-23T02:02:51.106Z,50.07
2018-03-23T02:05:19.619Z,44.40
2018-03-23T02:07:48.712Z,49.43
2018-03-23T02:10:17.105Z,48.00
2018-03-23T02:12:46.230Z,43.93
2018-03-23T02:15:15.340Z,46.47
2018-03-23T02:17:43.670Z,51.23
2018-03-23T02:20:11.975Z,52.87
2018-03-23T02:22:40.304Z,46.17
2018-03-23T02:25:08.619Z,51.50
2018-03-23T02:27:36.937Z,42.50
2018-03-23T02:30:06.029Z,43.80
2018-03-23T02:32:34.366Z,41.83
2018-03-23T02:35:02.697Z,46.20
2018-03-23T02:37:31.781Z,41.50
2018-03-23T02:40:00.110Z,49.23
2018-03-23T02:42:28.452Z,46.60
2018-03-23T02:44:57.634Z,40.30
2018-03-23T02:47:25.975Z,44.13
2018-03-23T02:49:54.320Z,44.47
2018-03-23T02:52:22.632Z,41.47
2018-03-23T02:54:50.999Z,38.10
2018-03-23T02:57:20.683Z,36.80
2018-03-23T02:59:49.026Z,42.87
2018-03-23T03:02:17.352Z,36.40
2018-03-23T03:04:45.664Z,37.13
2018-03-23T03:07:14.021Z,42.20
2018-03-23T03:09:42.446Z,36.93
2018-03-23T03:12:10.773Z,41.83
2018-03-23T03:14:39.106Z,36.77
2018-03-23T03:17:07.471Z,34.83
2018-03-23T03:19:36.622Z,34.87
2018-03-23T03:22:04.948Z,43.23
2018-03-23T03:24:34.046Z,35.80
2018-03-23T03:27:02.470Z,33.13
2018-03-23T03:29:30.787Z,34.13
2018-03-23T03:31:59.107Z,37.23
2018-03-23T03:34:28.208Z,32.37
2018-03-23T03:36:56.579Z,30.83
2018-03-23T03:39:25.706Z,39.13
2018-03-23T03:41:54.030Z,35.00
2018-03-23T03:44:22.395Z,31.07
2018-03-23T03:46:50.701Z,35.10
2018-03-23T03:49:19.021Z,30.90
2018-03-23T03:51:48.087Z,27.90
2018-03-23T03:54:16.427Z,35.10
2018-03-23T03:56:44.745Z,27.60
2018-03-23T03:59:13.068Z,31.60
2018-03-23T04:01:42.150Z,29.50
2018-03-23T04:04:10.470Z,28.80
2018-03-23T04:06:39.535Z,30.03
2018-03-23T04:09:07.857Z,42.07
2018-03-23T04:11:36.167Z,32.13
2018-03-23T04:14:04.494Z,34.37
2018-03-23T04:16:33.590Z,32.23
2018-03-23T04:19:02.679Z,35.70
2018-03-23T04:21:31.029Z,33.63
2018-03-23T04:23:59.395Z,27.10
2018-03-23T04:26:27.703Z,27.77
2018-03-23T04:28:56.093Z,27.90
2018-03-23T04:31:24.393Z,28.90
2018-03-23T04:33:52.725Z,30.43
2018-03-23T04:36:21.070Z,31.43
2018-03-23T04:38:50.137Z,28.10
2018-03-23T04:41:18.533Z,25.77
2018-03-23T04:43:46.839Z,34.97
2018-03-23T04:46:15.172Z,28.80
2018-03-23T04:48:43.532Z,35.90
2018-03-23T04:51:11.846Z,37.77
2018-03-23T04:53:40.192Z,27.40
2018-03-23T04:56:08.548Z,31.80
2018-03-23T04:58:36.905Z,38.57
2018-03-23T05:01:05.208Z,33.53
2018-03-23T05:03:34.306Z,31.57
2018-03-23T05:06:03.403Z,30.50
2018-03-23T05:08:32.471Z,24.70
2018-03-23T05:11:00.808Z,28.57
2018-03-23T05:13:29.112Z,24.70
2018-03-23T05:15:57.462Z,26.97
2018-03-23T05:18:26.563Z,24.37
2018-03-23T05:20:55.651Z,22.83
2018-03-23T05:23:24.747Z,27.30
2018-03-23T05:25:53.058Z,27.70
2018-03-23T05:28:21.449Z,26.60
2018-03-23T05:30:49.777Z,29.90
2018-03-23T05:33:18.903Z,22.20
2018-03-23T05:35:48.005Z,22.77
2018-03-23T05:38:17.109Z,21.87
2018-03-23T05:40:46.307Z,22.63
2018-03-23T05:43:15.387Z,20.37
2018-03-23T05:45:44.483Z,23.50
2018-03-23T05:48:12.785Z,23.77
2018-03-23T05:50:41.877Z,26.50
2018-03-23T05:53:10.993Z,20.63
2018-03-23T05:55:39.337Z,16.33
2018-03-23T05:58:07.644Z,21.37
2018-03-23T06:00:36.741Z,19.70
2018-03-23T06:03:05.828Z,19.33
2018-03-23T06:05:34.141Z,21.10
2018-03-23T06:08:03.223Z,21.83
2018-03-23T06:10:32.307Z,16.33
2018-03-23T06:13:00.635Z,19.10
2018-03-23T06:15:28.937Z,16.10
2018-03-23T06:17:57.275Z,20.17
2018-03-23T06:20:26.402Z,19.33
2018-03-23T06:22:54.819Z,15.37
2018-03-23T06:25:23.095Z,24.53
2018-03-23T06:27:52.072Z,19.13
2018-03-23T06:30:20.385Z,19.40
2018-03-23T06:32:48.703Z,20.13
2018-03-23T06:35:17.781Z,23.03
2018-03-23T06:37:46.099Z,21.77
2018-03-23T06:40:14.420Z,22.17
2018-03-23T06:42:42.733Z,25.03
2018-03-23T06:45:11.067Z,21.33
2018-03-23T06:47:39.385Z,21.20
2018-03-23T06:50:07.727Z,20.83
2018-03-23T06:52:36.047Z,25.40
2018-03-23T06:55:04.355Z,24.47
2018-03-23T06:57:33.469Z,25.37
2018-03-23T07:00:02.564Z,29.13
2018-03-23T07:02:30.905Z,24.20
2018-03-23T07:04:59.245Z,26.10
2018-03-23T07:07:27.558Z,27.53
2018-03-23T07:09:55.894Z,25.83
2018-03-23T07:12:25.051Z,26.90
2018-03-23T07:14:53.378Z,29.73
2018-03-23T07:17:21.723Z,26.33
2018-03-23T07:19:50.059Z,24.17
2018-03-23T07:22:18.391Z,26.53
2018-03-23T07:24:46.709Z,22.60
2018-03-23T07:27:15.041Z,25.17
2018-03-23T07:29:43.349Z,25.77
2018-03-23T07:32:11.719Z,23.90
2018-03-23T07:34:40.054Z,23.97
2018-03-23T07:37:08.386Z,19.60
2018-03-23T07:39:36.789Z,19.50
2018-03-23T07:42:05.155Z,20.67
2018-03-23T07:44:33.481Z,20.03
2018-03-23T07:47:01.793Z,25.20
2018-03-23T07:49:30.109Z,23.03
2018-03-23T07:51:58.438Z,21.33
2018-03-23T07:54:26.748Z,19.87
2018-03-23T07:56:55.079Z,18.80
2018-03-23T07:59:24.152Z,16.70
2018-03-23T08:01:53.348Z,18.00
2018-03-23T08:04:21.661Z,23.40
2018-03-23T08:06:50.775Z,13.53
2018-03-23T08:09:19.849Z,15.60
2018-03-23T08:11:48.161Z,14.73
2018-03-23T08:14:16.477Z,17.40
2018-03-23T08:16:44.804Z,17.10
2018-03-23T08:19:13.131Z,14.40
2018-03-23T08:21:41.447Z,14.60
2018-03-23T08:24:09.787Z,15.07
2018-03-23T08:26:38.107Z,14.53
2018-03-23T08:29:06.418Z,13.57
2018-03-23T08:31:35.506Z,14.60
2018-03-23T08:34:04.671Z,15.10
2018-03-23T08:36:33.003Z,14.60
2018-03-23T08:39:02.083Z,17.20
2018-03-23T08:41:31.231Z,15.30
2018-03-23T08:43:59.564Z,13.87
2018-03-23T08:46:27.889Z,14.20
2018-03-23T08:48:56.212Z,13.83
2018-03-23T08:51:24.557Z,15.37
2018-03-23T08:53:52.878Z,15.00
2018-03-23T08:56:21.203Z,13.17
2018-03-23T08:58:49.549Z,11.93
2018-03-23T09:01:17.889Z,15.67
2018-03-23T09:03:46.247Z,12.90
2018-03-23T09:06:15.333Z,11.00
2018-03-23T09:08:43.684Z,11.43
2018-03-23T09:11:12.054Z,11.57
2018-03-23T09:13:40.366Z,12.57
2018-03-23T09:16:08.767Z,11.90
2018-03-23T09:18:37.847Z,15.40
2018-03-23T09:21:06.161Z,12.50
2018-03-23T09:23:35.269Z,11.97
2018-03-23T09:26:04.351Z,11.67
2018-03-23T09:28:33.448Z,11.47
2018-03-23T09:31:02.549Z,11.13
2018-03-23T09:33:31.631Z,12.53
2018-03-23T09:35:59.950Z,13.20
2018-03-23T09:38:28.287Z,12.30
2018-03-23T09:40:56.641Z,12.90
2018-03-23T09:43:24.971Z,13.90
2018-03-23T09:45:53.305Z,13.40
2018-03-23T09:48:21.654Z,14.23
2018-03-23T09:50:49.972Z,13.23
2018-03-23T09:53:18.272Z,14.07
2018-03-23T09:55:46.609Z,13.87
2018-03-23T09:58:14.941Z,14.67
2018-03-23T10:00:43.276Z,15.47
2018-03-23T10:03:11.626Z,15.13
2018-03-23T10:05:40.017Z,15.97
2018-03-23T10:08:09.112Z,16.73
2018-03-23T10:10:38.215Z,17.23
2018-03-23T10:13:06.538Z,18.13
2018-03-23T10:15:34.875Z,18.07
2018-03-23T10:18:03.193Z,18.40
2018-03-23T10:20:31.525Z,18.00
2018-03-23T10:22:59.823Z,21.03
2018-03-23T10:25:28.148Z,21.70
2018-03-23T10:27:56.493Z,21.70
2018-03-23T10:30:25.598Z,21.97
2018-03-23T10:32:54.675Z,22.10
2018-03-23T10:35:23.048Z,19.00
2018-03-23T10:37:51.363Z,17.67
2018-03-23T10:40:20.472Z,17.60
2018-03-23T10:42:48.789Z,17.07
2018-03-23T10:45:17.116Z,16.10
2018-03-23T10:47:45.438Z,16.97
2018-03-23T10:50:13.747Z,15.87
2018-03-23T10:52:42.146Z,16.53
2018-03-23T10:55:10.475Z,16.60
2018-03-23T10:57:38.802Z,17.03
2018-03-23T11:00:07.150Z,18.43
2018-03-23T11:02:49.972Z,18.00
2018-03-23T11:05:18.282Z,18.47
2018-03-23T11:07:47.581Z,18.97
2018-03-23T11:10:15.901Z,19.50
2018-03-23T11:12:44.986Z,20.60
2018-03-23T11:15:13.313Z,21.80
2018-03-23T11:17:41.642Z,22.93
2018-03-23T11:20:10.033Z,19.80
2018-03-23T11:22:38.368Z,20.60
2018-03-23T11:25:06.702Z,20.37
2018-03-23T11:27:35.018Z,19.70
2018-03-23T11:30:03.356Z,21.40
2018-03-23T11:32:32.420Z,20.40
2018-03-23T11:35:00.745Z,19.73
2018-03-23T11:37:29.822Z,22.43
2018-03-23T11:39:58.137Z,23.73
2018-03-23T11:42:27.376Z,21.83
2018-03-23T11:44:55.698Z,20.50
2018-03-23T11:47:24.008Z,20.27
2018-03-23T11:49:53.106Z,19.20
2018-03-23T11:52:21.424Z,16.57
2018-03-23T11:54:49.733Z,16.90
2018-03-23T11:57:18.054Z,16.00
2018-03-23T11:59:47.136Z,15.97
2018-03-23T12:02:16.314Z,16.33
2018-03-23T12:04:44.649Z,19.20
2018-03-23T12:07:13.731Z,16.60
2018-03-23T12:09:42.059Z,17.43
2018-03-23T12:12:10.364Z,16.90
2018-03-23T12:14:38.698Z,17.67
2018-03-23T12:17:07.032Z,16.07
2018-03-23T12:19:35.368Z,17.20
2018-03-23T12:22:03.716Z,16.10
2018-03-23T12:24:32.034Z,16.77
2018-03-23T12:27:00.372Z,17.00
2018-03-23T12:29:28.712Z,16.90
2018-03-23T12:31:57.061Z,18.10
2018-03-23T12:34:26.144Z,17.13
2018-03-23T12:36:54.474Z,18.20
2018-03-23T12:39:22.822Z,18.57
2018-03-23T12:41:51.156Z,18.07
2018-03-23T12:44:19.469Z,17.33
2018-03-23T12:46:47.787Z,16.10
2018-03-23T12:49:16.872Z,16.47
2018-03-23T12:51:46.060Z,17.80
2018-03-23T12:54:14.542Z,17.50
2018-03-23T12:56:42.863Z,18.60
2018-03-23T12:59:11.213Z,17.20
2018-03-23T13:01:39.610Z,18.87
2018-03-23T13:04:09.398Z,18.93
2018-03-23T13:06:37.725Z,18.60
2018-03-23T13:09:06.063Z,18.40
2018-03-23T13:11:34.545Z,17.67
2018-03-23T13:14:02.862Z,19.13
2018-03-23T13:16:31.956Z,16.97
2018-03-23T13:19:01.062Z,17.77
2018-03-23T13:21:29.454Z,18.90
2018-03-23T13:23:57.830Z,18.23
2018-03-23T13:26:26.924Z,19.40
2018-03-23T13:28:56.107Z,18.43
2018-03-23T13:31:24.463Z,18.13
2018-03-23T13:33:52.867Z,18.23
2018-03-23T13:36:21.186Z,18.53
2018-03-23T13:38:50.250Z,21.10
2018-03-23T13:41:18.567Z,21.30
2018-03-23T13:43:47.690Z,19.40
2018-03-23T13:46:16.075Z,19.57
2018-03-23T13:48:44.388Z,18.27
2018-03-23T13:51:12.717Z,18.40
2018-03-23T13:53:41.810Z,19.20
2018-03-23T13:56:10.962Z,17.13
2018-03-23T13:58:44.671Z,17.90
2018-03-23T14:01:19.016Z,19.33
2018-03-23T14:03:47.328Z,17.10
2018-03-23T14:06:15.648Z,17.43
2018-03-23T14:08:43.975Z,18.70
2018-03-23T14:11:13.063Z,18.17
2018-03-23T14:13:41.423Z,18.07
2018-03-23T14:16:09.759Z,18.00
2018-03-23T14:18:38.080Z,17.80
2018-03-23T14:21:06.394Z,20.00
2018-03-23T14:23:35.471Z,19.33
2018-03-23T14:26:03.810Z,18.33
2018-03-23T14:28:32.235Z,17.50
2018-03-23T14:31:00.487Z,21.07
2018-03-23T14:33:28.821Z,17.77
2018-03-23T14:35:57.136Z,17.03
2018-03-23T14:38:25.449Z,19.97
2018-03-23T14:40:53.781Z,15.53
2018-03-23T14:43:22.855Z,24.37
2018-03-23T14:45:51.173Z,18.53
2018-03-23T14:48:20.265Z,17.83
2018-03-23T14:50:49.383Z,18.37
2018-03-23T14:53:17.701Z,18.50
2018-03-23T14:55:46.042Z,21.93
2018-03-23T14:58:15.122Z,18.90
2018-03-23T15:00:44.298Z,21.10
2018-03-23T15:03:12.644Z,19.63
2018-03-23T15:05:40.955Z,22.50
2018-03-23T15:08:09.274Z,21.70
2018-03-23T15:10:38.463Z,19.00
2018-03-23T15:13:06.741Z,20.00
2018-03-23T15:15:35.071Z,18.30
2018-03-23T15:18:03.443Z,18.80
2018-03-23T15:20:31.810Z,20.53
2018-03-23T15:23:00.911Z,18.43
2018-03-23T15:25:30.015Z,18.83
2018-03-23T15:27:58.379Z,19.70
2018-03-23T15:30:26.697Z,22.80
2018-03-23T15:32:55.010Z,18.83
2018-03-23T15:35:24.090Z,19.57
2018-03-23T15:37:52.408Z,19.47
2018-03-23T15:40:20.803Z,18.07
2018-03-23T15:42:49.131Z,19.30
2018-03-23T15:45:17.455Z,17.37
2018-03-23T15:47:45.787Z,17.90
2018-03-23T15:50:14.120Z,18.77
2018-03-23T15:52:42.589Z,20.80
2018-03-23T15:55:10.927Z,19.07
2018-03-23T15:57:40.065Z,22.00
2018-03-23T16:00:08.480Z,19.70
2018-03-23T16:02:36.852Z,22.73
2018-03-23T16:05:05.309Z,19.23
2018-03-23T16:07:33.647Z,20.63
2018-03-23T16:10:01.965Z,19.47
2018-03-23T16:12:30.313Z,19.87
2018-03-23T16:14:58.643Z,22.90
2018-03-23T16:17:26.971Z,19.97
2018-03-23T16:19:55.316Z,22.13
2018-03-23T16:22:23.754Z,22.13
2018-03-23T16:24:52.843Z,20.90
2018-03-23T16:27:21.213Z,20.03
2018-03-23T16:29:49.553Z,20.33
2018-03-23T16:32:17.948Z,20.33
2018-03-23T16:34:46.277Z,19.67
2018-03-23T16:37:15.365Z,20.03
2018-03-23T16:39:43.695Z,20.77
2018-03-23T16:42:11.997Z,19.73
2018-03-23T16:44:40.350Z,18.77
2018-03-23T16:47:08.677Z,22.00
2018-03-23T16:49:37.018Z,20.13
2018-03-23T16:52:05.431Z,21.50
2018-03-23T16:54:33.836Z,19.33
2018-03-23T16:57:02.192Z,20.20
2018-03-23T16:59:30.537Z,22.30
2018-03-23T17:01:58.941Z,23.97
2018-03-23T17:04:27.984Z,26.43
2018-03-23T17:06:56.332Z,21.73
2018-03-23T17:09:24.738Z,23.73
2018-03-23T17:11:53.161Z,21.87
2018-03-23T17:14:22.245Z,25.73
2018-03-23T17:16:50.615Z,23.00
2018-03-23T17:19:18.945Z,22.53
2018-03-23T17:21:47.347Z,21.80
2018-03-23T17:24:15.772Z,22.83
2018-03-23T17:26:44.987Z,23.47
2018-03-23T17:29:14.219Z,23.83
2018-03-23T17:31:42.686Z,23.70
2018-03-23T17:34:11.810Z,22.90
2018-03-23T17:36:40.282Z,23.17
2018-03-23T17:39:08.655Z,24.00
2018-03-23T17:41:37.944Z,24.80
2018-03-23T17:44:06.297Z,26.03
2018-03-23T17:46:34.837Z,24.83
2018-03-23T17:49:03.274Z,25.83
2018-03-23T17:51:31.713Z,24.60
2018-03-23T17:54:00.117Z,23.30
2018-03-23T17:56:28.478Z,27.73
2018-03-23T17:58:56.792Z,23.23
2018-03-23T18:01:25.253Z,25.43
2018-03-23T18:03:53.699Z,29.90
2018-03-23T18:06:22.867Z,27.80
2018-03-23T18:08:51.192Z,29.97
2018-03-23T18:11:19.701Z,26.50
2018-03-23T18:13:48.243Z,27.90
2018-03-23T18:16:16.768Z,30.60
2018-03-23T18:18:45.237Z,31.43
2018-03-23T18:21:14.683Z,28.73
2018-03-23T18:23:43.783Z,29.33
2018-03-23T18:26:12.315Z,31.57
2018-03-23T18:28:41.660Z,32.87
2018-03-23T18:31:10.029Z,31.80
2018-03-23T18:33:39.367Z,31.40
2018-03-23T18:36:07.905Z,33.43
2018-03-23T18:38:36.269Z,31.53
2018-03-23T18:41:04.615Z,31.63
2018-03-23T18:43:33.035Z,30.47
2018-03-23T18:46:01.384Z,31.23
2018-03-23T18:48:29.830Z,35.10
2018-03-23T18:50:58.214Z,34.10
2018-03-23T18:53:26.542Z,34.80
2018-03-23T18:55:54.878Z,34.90
2018-03-23T18:58:23.270Z,39.33
2018-03-23T19:00:52.585Z,37.10
2018-03-23T19:03:21.154Z,40.43
2018-03-23T19:05:49.496Z,38.83
2018-03-23T19:08:18.049Z,38.43
2018-03-23T19:10:47.570Z,37.20
2018-03-23T19:13:16.904Z,37.40
2018-03-23T19:15:45.677Z,38.37
2018-03-23T19:18:14.271Z,40.60
2018-03-23T19:20:42.638Z,41.87
2018-03-23T19:23:10.966Z,38.27
2018-03-23T19:25:39.484Z,40.43
2018-03-23T19:28:08.076Z,43.00
2018-03-23T19:30:36.705Z,39.47
2018-03-23T19:33:05.255Z,42.37
2018-03-23T19:35:33.835Z,46.57
2018-03-23T19:38:02.436Z,44.00
2018-03-23T19:40:30.829Z,42.37
2018-03-23T19:42:59.201Z,44.90
2018-03-23T19:45:27.514Z,45.37
2018-03-23T19:47:56.045Z,45.80
2018-03-23T19:50:24.679Z,43.90
2018-03-23T19:52:53.242Z,44.30
2018-03-23T19:55:21.589Z,41.40
2018-03-23T19:57:50.149Z,42.20
2018-03-23T20:00:18.493Z,45.03
2018-03-23T20:02:47.929Z,43.23
2018-03-23T20:05:16.577Z,43.83
2018-03-23T20:07:45.109Z,42.83
2018-03-23T20:10:13.563Z,48.90
2018-03-23T20:12:42.790Z,46.23
2018-03-23T20:15:11.116Z,48.57
2018-03-23T20:17:45.076Z,44.50
2018-03-23T20:20:18.849Z,42.07
2018-03-23T20:22:47.200Z,41.20
2018-03-23T20:25:16.324Z,36.30
2018-03-23T20:27:50.331Z,40.50
2018-03-23T20:30:18.639Z,36.80
2018-03-23T20:32:47.703Z,36.27
2018-03-23T20:35:16.132Z,37.87
2018-03-23T20:37:44.477Z,39.60
2018-03-23T20:40:12.828Z,33.97
2018-03-23T20:42:41.164Z,35.67
2018-03-23T20:45:10.274Z,35.40
2018-03-23T20:47:39.531Z,36.30
2018-03-23T20:50:07.866Z,35.83
2018-03-23T20:52:37.105Z,36.10
2018-03-23T20:55:05.441Z,36.00
2018-03-23T20:57:34.647Z,38.30
2018-03-23T21:00:02.969Z,33.47
2018-03-23T21:02:31.286Z,41.20
2018-03-23T21:04:59.587Z,34.67
2018-03-23T21:07:28.763Z,41.20
2018-03-23T21:09:57.128Z,38.87
2018-03-23T21:12:25.660Z,38.37
2018-03-23T21:14:55.150Z,35.97
2018-03-23T21:17:24.243Z,35.50
2018-03-23T21:19:52.640Z,36.30
2018-03-23T21:22:21.854Z,40.37
2018-03-23T21:24:50.217Z,40.10
2018-03-23T21:27:18.731Z,42.03
2018-03-23T21:29:47.078Z,38.40
2018-03-23T21:32:15.415Z,43.20
2018-03-23T21:34:43.727Z,41.33
2018-03-23T21:37:12.102Z,45.00
2018-03-23T21:39:40.474Z,38.03
2018-03-23T21:42:08.802Z,41.57
2018-03-23T21:44:37.146Z,47.37
2018-03-23T21:47:05.476Z,42.07
2018-03-23T21:49:33.888Z,42.40
2018-03-23T21:52:02.194Z,42.27
2018-03-23T21:54:30.558Z,44.50
2018-03-23T21:56:58.894Z,41.53
2018-03-23T21:59:27.203Z,44.20
2018-03-23T22:01:56.277Z,41.80
2018-03-23T22:04:24.692Z,41.93
2018-03-23T22:06:53.817Z,41.70
2018-03-23T22:09:22.160Z,42.90
2018-03-23T22:11:51.298Z,40.87
2018-03-23T22:14:19.604Z,43.20
2018-03-23T22:16:47.944Z,43.50
2018-03-23T22:19:16.319Z,43.73
2018-03-23T22:21:45.470Z,45.53
2018-03-23T22:24:13.848Z,45.63
2018-03-23T22:26:42.945Z,45.70
2018-03-23T22:29:12.256Z,44.53
2018-03-23T22:31:40.609Z,43.30
2018-03-23T22:34:08.919Z,47.23
2018-03-23T22:36:37.252Z,46.30
2018-03-23T22:39:06.358Z,45.43
2018-03-23T22:41:35.428Z,45.60
2018-03-23T22:44:03.754Z,44.70
2018-03-23T22:46:32.071Z,52.10
2018-03-23T22:49:00.415Z,48.13
2018-03-23T22:51:28.817Z,45.90
2018-03-23T22:53:57.757Z,44.57
2018-03-23T22:56:26.093Z,48.77
2018-03-23T22:58:54.430Z,47.00
2018-03-23T23:01:23.570Z,48.07
2018-03-23T23:03:51.932Z,45.87
2018-03-23T23:06:21.052Z,43.13
2018-03-23T23:08:49.399Z,47.27
2018-03-23T23:11:18.515Z,45.80
2018-03-23T23:13:47.628Z,48.83
2018-03-23T23:16:15.923Z,47.60
2018-03-23T23:18:44.220Z,48.50
2018-03-23T23:21:12.530Z,46.40
2018-03-23T23:23:41.640Z,47.87
2018-03-23T23:26:10.749Z,48.37
2018-03-23T23:28:39.856Z,44.73
2018-03-23T23:31:08.941Z,45.07
2018-03-23T23:33:37.282Z,51.20
2018-03-23T23:36:05.602Z,45.23
2018-03-23T23:38:33.958Z,49.03
2018-03-23T23:41:02.291Z,47.87
2018-03-23T23:43:31.370Z,54.93
2018-03-23T23:45:59.699Z,51.83
2018-03-23T23:48:28.030Z,48.90
2018-03-23T23:50:56.360Z,48.07
2018-03-23T23:53:24.708Z,45.73
2018-03-23T23:55:53.806Z,43.33
2018-03-23T23:58:22.890Z,47.37
